Time;durP1;ratioP1;P1;durP2;ratioP2;P2;SDS_P1;SDS_P2;PMS_P1;PMS_P2;Temp;Humidity;BMP_temperature;BMP_pressure;BME280_temperature;BME280_humidity;BME280_pressure;Samples;Min_cycle;Max_cycle;Signal;HPM_P1;HPM_P2
2022/04/06 00:01:21;;;;;;;;;1.20;1.20;;;;;11.40;56.19;100496.78;5055343;28;45331;-47
2022/04/06 00:03:47;;;;;;;;;2.00;1.50;;;;;11.37;57.21;100502.75;5039075;28;45434;-46
2022/04/06 00:06:12;;;;;;;;;2.00;2.00;;;;;11.38;57.27;100505.25;5056388;28;45412;-46
2022/04/06 00:08:38;;;;;;;;;2.00;2.00;;;;;11.39;57.07;100489.59;5038103;28;45444;-50
2022/04/06 00:11:03;;;;;;;;;3.75;2.50;;;;;11.33;56.16;100496.00;5061823;28;45389;-48
2022/04/06 00:13:29;;;;;;;;;0.50;0.50;;;;;11.29;56.81;100490.09;5052135;28;45410;-49
2022/04/06 00:15:55;;;;;;;;;6.25;2.75;;;;;11.28;55.79;100498.56;5018284;28;47214;-47
2022/04/06 00:18:20;;;;;;;;;1.00;1.00;;;;;11.07;56.10;100456.66;5036504;28;45407;-50
2022/04/06 00:20:46;;;;;;;;;2.00;1.00;;;;;11.11;56.52;100466.16;5034930;28;45340;-48
2022/04/06 00:23:11;;;;;;;;;3.00;1.50;;;;;11.30;55.48;100490.97;5036582;28;45336;-47
2022/04/06 00:25:37;;;;;;;;;1.25;1.00;;;;;11.23;56.22;100480.00;5035596;28;46315;-48
2022/04/06 00:28:03;;;;;;;;;0.25;0.25;;;;;11.19;55.19;100476.00;5036257;28;45493;-48
2022/04/06 00:30:28;;;;;;;;;0.25;0.25;;;;;11.16;56.09;100468.22;5036308;28;45509;-46
2022/04/06 00:32:54;;;;;;;;;1.00;1.00;;;;;11.21;56.04;100477.47;5036579;28;45434;-48
2022/04/06 00:35:28;;;;;;;;;1.75;1.00;;;;;11.25;55.93;100475.13;5034318;28;47381;-46
2022/04/06 00:37:58;;;;;;;;;1.00;1.00;;;;;11.25;55.77;100466.88;5035837;28;45461;-48
2022/04/06 00:40:23;;;;;;;;;0.40;0.40;;;;;11.25;55.80;100462.25;5036329;28;45354;-47
2022/04/06 00:42:49;;;;;;;;;0.25;0.25;;;;;11.24;56.13;100452.31;5034975;28;45597;-50
2022/04/06 00:45:15;;;;;;;;;0.60;0.60;;;;;11.13;56.22;100447.53;5035731;28;46474;-47
2022/04/06 00:47:41;;;;;;;;;0.00;0.00;;;;;11.05;56.56;100442.31;5035188;28;45595;-48
2022/04/06 00:50:07;;;;;;;;;1.20;1.20;;;;;11.04;56.94;100454.38;5034432;28;45560;-48
2022/04/06 00:52:33;;;;;;;;;1.00;1.00;;;;;11.01;56.58;100450.16;5036095;28;45400;-48
2022/04/06 00:54:58;;;;;;;;;2.00;1.00;;;;;10.89;56.99;100419.00;5017899;28;45319;-49
2022/04/06 00:57:24;;;;;;;;;1.25;1.25;;;;;11.03;57.29;100447.19;5021293;28;45492;-49
2022/04/06 00:59:50;;;;;;;;;1.00;1.00;;;;;10.98;57.30;100445.97;5054614;28;45432;-48
2022/04/06 01:02:15;;;;;;;;;1.00;1.00;;;;;10.95;57.28;100451.06;5071830;28;45490;-48
2022/04/06 01:04:41;;;;;;;;;1.75;1.75;;;;;10.87;57.41;100435.69;5055929;28;45320;-47
2022/04/06 01:07:06;;;;;;;;;4.75;1.00;;;;;10.73;58.47;100406.63;5055541;28;45282;-47
2022/04/06 01:09:32;;;;;;;;;2.50;1.50;;;;;10.89;58.02;100439.03;5055656;28;45387;-51
2022/04/06 01:11:58;;;;;;;;;1.00;1.00;;;;;10.66;58.35;100404.78;5055945;28;45339;-50
2022/04/06 01:14:23;;;;;;;;;1.00;1.00;;;;;10.82;58.44;100436.34;5055466;28;45555;-50
2022/04/06 01:17:00;;;;;;;;;1.75;0.75;;;;;10.80;58.88;100429.38;5071118;28;45392;-47
2022/04/06 01:19:35;;;;;;;;;1.20;0.80;;;;;10.76;59.38;100419.91;5055081;28;45313;-48
2022/04/06 01:22:11;;;;;;;;;3.00;1.00;;;;;10.77;58.71;100416.94;5055598;28;45378;-46
2022/04/06 01:24:36;;;;;;;;;1.00;0.00;;;;;10.75;59.21;100412.72;5054010;28;46770;-46
2022/04/06 01:27:02;;;;;;;;;2.00;1.50;;;;;10.72;59.43;100405.78;5055280;28;45377;-47
2022/04/06 01:29:28;;;;;;;;;1.00;1.00;;;;;10.70;58.76;100413.41;5055851;28;45495;-47
2022/04/06 01:31:54;;;;;;;;;2.00;1.00;;;;;10.66;58.93;100409.41;5054706;28;45373;-48
2022/04/06 01:34:20;;;;;;;;;1.00;1.00;;;;;10.59;59.09;100406.72;5055258;28;45848;-48
2022/04/06 01:36:45;;;;;;;;;2.00;1.50;;;;;10.61;59.34;100404.59;5054004;28;45452;-48
2022/04/06 01:39:11;;;;;;;;;1.00;1.00;;;;;10.55;59.52;100414.56;5087973;27;45366;-46
2022/04/06 01:41:37;;;;;;;;;2.50;1.00;;;;;10.53;59.13;100413.94;5071021;28;45385;-46
2022/04/06 01:44:05;;;;;;;;;1.00;1.00;;;;;10.53;59.24;100421.31;5062677;27;46841;-46
2022/04/06 01:46:32;;;;;;;;;1.20;0.80;;;;;10.21;59.67;100369.13;5055239;28;45355;-46
2022/04/06 01:54:26;;;;;;;;;0.20;0.00;;;;;10.41;59.47;100402.75;5055388;28;45845;-55
2022/04/06 01:56:51;;;;;;;;;2.25;2.00;;;;;10.45;59.47;100411.44;5054800;28;45298;-48
2022/04/06 01:59:17;;;;;;;;;0.00;0.00;;;;;10.43;59.06;100400.69;5070281;28;45492;-47
2022/04/06 02:01:43;;;;;;;;;0.25;0.25;;;;;10.42;60.04;100398.13;5054990;28;45432;-51
2022/04/06 02:04:15;;;;;;;;;0.80;0.80;;;;;10.40;59.44;100403.84;5070309;28;45812;-48
2022/04/06 02:06:41;;;;;;;;;2.00;2.00;;;;;10.25;59.52;100375.84;5054426;28;45334;-48
2022/04/06 02:09:06;;;;;;;;;1.50;1.50;;;;;10.31;59.66;100397.75;5087579;27;45440;-49
2022/04/06 02:11:32;;;;;;;;;0.00;0.00;;;;;10.36;59.04;100399.00;5053532;28;45369;-50
2022/04/06 02:13:57;;;;;;;;;1.00;1.00;;;;;10.31;59.06;100402.41;5053199;28;46821;-50
2022/04/06 02:16:23;;;;;;;;;2.25;1.00;;;;;10.10;59.86;100374.25;5054662;28;45363;-48
2022/04/06 02:18:49;;;;;;;;;1.00;1.00;;;;;10.15;60.44;100398.25;5070331;28;45384;-47
2022/04/06 02:21:15;;;;;;;;;0.00;0.00;;;;;10.12;61.01;100394.06;5053912;28;45409;-48
2022/04/06 02:23:40;;;;;;;;;0.50;0.50;;;;;10.16;59.93;100398.03;5052993;28;45453;-46
2022/04/06 02:26:06;;;;;;;;;0.75;0.75;;;;;10.22;60.49;100387.25;5054648;28;45452;-46
2022/04/06 02:28:32;;;;;;;;;1.25;1.25;;;;;10.16;59.60;100378.00;5054573;28;45414;-47
2022/04/06 02:30:57;;;;;;;;;1.00;1.00;;;;;10.04;59.43;100358.66;5055513;28;45876;-48
2022/04/06 02:33:23;;;;;;;;;1.25;1.25;;;;;10.00;59.94;100335.47;5057945;28;45439;-48
2022/04/06 02:35:48;;;;;;;;;1.50;0.00;;;;;10.30;59.95;100374.13;5073502;28;45358;-49
2022/04/06 02:38:14;;;;;;;;;0.50;0.50;;;;;10.35;59.84;100376.22;5057507;28;45373;-46
2022/04/06 02:40:39;;;;;;;;;0.75;0.75;;;;;10.13;59.14;100334.53;5058127;28;45329;-49
2022/04/06 02:43:05;;;;;;;;;1.00;1.00;;;;;10.42;59.46;100374.28;5056345;28;47243;-47
2022/04/06 02:45:30;;;;;;;;;0.00;0.00;;;;;10.43;59.58;100361.44;5057750;28;45374;-48
2022/04/06 02:47:56;;;;;;;;;1.00;0.50;;;;;10.45;59.17;100370.28;5057721;28;45700;-50
2022/04/06 02:50:21;;;;;;;;;1.00;1.00;;;;;10.41;59.34;100367.09;5057498;28;45357;-49
2022/04/06 02:52:47;;;;;;;;;0.25;0.25;;;;;10.44;59.43;100372.19;5057229;28;45412;-50
2022/04/06 02:55:13;;;;;;;;;0.00;0.00;;;;;10.47;58.80;100362.69;5073332;28;45365;-49
2022/04/06 02:57:39;;;;;;;;;1.00;0.00;;;;;10.50;59.14;100372.34;5057466;28;45452;-48
2022/04/06 03:00:08;;;;;;;;;1.80;0.80;;;;;10.49;59.25;100363.28;5057863;28;45431;-48
2022/04/06 03:02:34;;;;;;;;;0.00;0.00;;;;;10.42;58.80;100365.22;5057528;28;46212;-48
2022/04/06 03:04:59;;;;;;;;;0.50;0.50;;;;;10.29;59.60;100366.97;5039628;28;45319;-48
2022/04/06 03:07:25;;;;;;;;;0.00;0.00;;;;;10.36;58.95;100357.84;5057868;28;45358;-47
2022/04/06 03:09:50;;;;;;;;;0.25;0.25;;;;;10.40;58.60;100346.22;5057902;28;45582;-47
2022/04/06 03:12:16;;;;;;;;;0.00;0.00;;;;;10.46;58.93;100349.19;5039271;28;47451;-48
2022/04/06 03:14:41;;;;;;;;;0.75;0.00;;;;;10.23;58.80;100317.63;5057408;28;45640;-48
2022/04/06 03:17:07;;;;;;;;;0.25;0.00;;;;;10.47;58.69;100345.38;5058053;28;45449;-46
2022/04/06 03:19:32;;;;;;;;;0.50;0.50;;;;;10.43;59.36;100342.22;5039719;28;45522;-47
2022/04/06 03:21:58;;;;;;;;;0.50;0.50;;;;;10.25;58.59;100313.59;5057320;28;45486;-49
2022/04/06 03:24:23;;;;;;;;;0.00;0.00;;;;;10.43;58.42;100332.09;5057264;28;45331;-47
2022/04/06 03:26:49;;;;;;;;;0.00;0.00;;;;;10.45;58.83;100334.59;5039128;28;45393;-47
2022/04/06 03:29:14;;;;;;;;;2.00;1.00;;;;;10.36;59.33;100309.31;5057763;28;45339;-48
2022/04/06 03:31:40;;;;;;;;;0.00;0.00;;;;;10.35;59.39;100326.00;5039516;28;46204;-46
2022/04/06 03:34:05;;;;;;;;;0.00;0.00;;;;;10.37;58.93;100321.97;5057283;28;45371;-49
2022/04/06 03:36:31;;;;;;;;;0.00;0.00;;;;;10.36;58.91;100331.25;5057036;28;45400;-47
2022/04/06 03:38:56;;;;;;;;;0.00;0.00;;;;;10.37;59.21;100324.72;5039131;28;45284;-48
2022/04/06 03:41:22;;;;;;;;;0.00;0.00;;;;;10.40;58.68;100317.94;5073027;28;45507;-48
2022/04/06 03:43:48;;;;;;;;;0.00;0.00;;;;;10.41;59.29;100323.19;5038126;28;45399;-54
2022/04/06 03:46:14;;;;;;;;;0.00;0.00;;;;;10.35;59.33;100309.53;5039325;28;45442;-47
2022/04/06 03:48:40;;;;;;;;;0.00;0.00;;;;;10.40;58.61;100312.44;5057085;28;45786;-54
2022/04/06 03:51:05;;;;;;;;;0.75;0.00;;;;;10.38;58.49;100318.16;5055229;28;46424;-47
2022/04/06 03:53:31;;;;;;;;;0.00;0.00;;;;;10.41;58.91;100317.72;5056723;28;45716;-47
2022/04/06 03:55:56;;;;;;;;;1.75;0.00;;;;;10.28;59.34;100293.13;5056894;28;45465;-45
2022/04/06 03:58:22;;;;;;;;;0.00;0.00;;;;;10.40;58.76;100317.94;5057029;28;45520;-46
2022/04/06 04:00:47;;;;;;;;;0.00;0.00;;;;;10.38;59.34;100312.69;5056149;28;45389;-47
2022/04/06 04:03:13;;;;;;;;;0.00;0.00;;;;;10.41;59.67;100306.75;5056341;28;45380;-47
2022/04/06 04:05:38;;;;;;;;;0.00;0.00;;;;;10.46;58.81;100313.50;5056604;28;45405;-48
2022/04/06 04:08:04;;;;;;;;;0.00;0.00;;;;;10.48;58.48;100309.47;5056685;28;45239;-47
2022/04/06 04:10:30;;;;;;;;;0.00;0.00;;;;;10.46;59.56;100311.59;5037756;28;46241;-46
2022/04/06 04:12:55;;;;;;;;;0.25;0.25;;;;;10.51;58.99;100313.69;5056229;28;45426;-49
2022/04/06 04:15:21;;;;;;;;;0.25;0.00;;;;;10.25;59.66;100268.88;5055015;28;45446;-47
2022/04/06 04:17:46;;;;;;;;;2.00;0.00;;;;;10.54;59.17;100308.59;5038565;28;45316;-48
2022/04/06 04:20:12;;;;;;;;;1.50;1.00;;;;;10.53;59.40;100312.41;5056433;28;46015;-50
2022/04/06 04:22:37;;;;;;;;;2.00;0.00;;;;;10.29;58.52;100287.41;5037900;28;45737;-48
2022/04/06 04:25:03;;;;;;;;;0.25;0.25;;;;;10.27;59.89;100285.94;5038361;28;45789;-48
2022/04/06 04:27:29;;;;;;;;;0.25;0.25;;;;;10.47;59.75;100309.69;5056010;28;45571;-48
2022/04/06 04:29:55;;;;;;;;;1.00;1.00;;;;;10.38;59.32;100298.13;5055988;28;45338;-47
2022/04/06 04:32:22;;;;;;;;;1.40;1.00;;;;;10.53;59.33;100314.31;5055947;28;45358;-47
2022/04/06 04:34:48;;;;;;;;;1.60;1.00;;;;;10.55;60.22;100303.94;5056085;28;45413;-49
2022/04/06 04:37:13;;;;;;;;;0.75;0.75;;;;;10.56;59.88;100294.63;5056016;28;45346;-48
2022/04/06 04:39:38;;;;;;;;;0.75;0.00;;;;;10.51;59.93;100287.06;5055724;28;45695;-50
2022/04/06 04:42:04;;;;;;;;;1.75;1.75;;;;;10.38;59.15;100266.06;5055943;28;45524;-46
2022/04/06 04:44:30;;;;;;;;;0.75;0.75;;;;;10.52;60.14;100285.19;5055906;28;45423;-46
2022/04/06 04:46:56;;;;;;;;;1.00;0.00;;;;;10.50;59.26;100287.28;5056245;28;45398;-47
2022/04/06 04:49:21;;;;;;;;;3.50;2.00;;;;;10.53;59.62;100278.63;5037831;28;46242;-50
2022/04/06 04:51:47;;;;;;;;;1.00;1.00;;;;;10.54;59.55;100285.78;5055609;28;45448;-47
2022/04/06 04:54:12;;;;;;;;;0.00;0.00;;;;;10.47;60.08;100279.53;5054996;28;45402;-49
2022/04/06 04:56:40;;;;;;;;;2.25;1.25;;;;;10.53;59.54;100281.38;5055540;28;45743;-46
2022/04/06 04:59:06;;;;;;;;;1.00;1.00;;;;;10.51;59.70;100275.28;5055537;28;45514;-47
2022/04/06 05:01:33;;;;;;;;;0.20;0.00;;;;;10.47;59.65;100268.53;5055068;28;45466;-49
2022/04/06 05:03:58;;;;;;;;;0.00;0.00;;;;;10.25;59.02;100220.34;5037398;28;45361;-47
2022/04/06 05:06:24;;;;;;;;;1.00;1.00;;;;;10.49;58.38;100266.41;5056004;28;45449;-47
2022/04/06 05:08:49;;;;;;;;;1.25;0.00;;;;;10.46;58.83;100256.72;5055181;28;46604;-48
2022/04/06 05:11:15;;;;;;;;;1.00;0.75;;;;;10.49;58.67;100263.66;5055433;28;45466;-52
2022/04/06 05:13:41;;;;;;;;;2.00;1.00;;;;;10.56;59.62;100280.91;5037285;28;45515;-48
2022/04/06 05:16:07;;;;;;;;;1.00;1.00;;;;;10.57;58.82;100277.94;5055744;28;45667;-47
2022/04/06 05:18:32;;;;;;;;;1.00;1.00;;;;;10.58;59.19;100265.91;5070933;28;47100;-49
2022/04/06 05:20:58;;;;;;;;;1.50;1.50;;;;;10.56;59.76;100269.94;5055485;28;45322;-48
2022/04/06 05:23:24;;;;;;;;;1.25;1.25;;;;;10.52;58.93;100253.06;5055485;28;45311;-49
2022/04/06 05:25:49;;;;;;;;;1.50;1.50;;;;;10.59;59.38;100261.28;5055563;28;45302;-48
2022/04/06 05:28:15;;;;;;;;;3.25;2.50;;;;;10.46;59.13;100234.75;5054823;28;45718;-48
2022/04/06 05:30:41;;;;;;;;;1.00;1.00;;;;;10.54;59.62;100261.09;5036984;28;45257;-48
2022/04/06 05:33:07;;;;;;;;;2.25;1.50;;;;;10.45;59.03;100246.81;5070848;28;45426;-48
2022/04/06 05:35:32;;;;;;;;;3.00;2.00;;;;;10.62;59.84;100270.97;5054531;28;45640;-47
2022/04/06 05:37:58;;;;;;;;;3.75;1.00;;;;;10.49;59.28;100256.28;5054919;28;47007;-47
2022/04/06 05:40:23;;;;;;;;;2.00;1.00;;;;;10.44;59.67;100253.38;5055203;28;45323;-45
2022/04/06 05:42:49;;;;;;;;;1.00;1.00;;;;;10.57;59.54;100277.13;5018074;28;45423;-50
2022/04/06 05:45:15;;;;;;;;;2.00;1.00;;;;;10.53;59.55;100274.00;5055470;28;45306;-48
2022/04/06 05:47:42;;;;;;;;;1.25;1.25;;;;;10.52;59.35;100282.44;5055062;28;46170;-48
2022/04/06 05:50:08;;;;;;;;;1.00;1.00;;;;;10.49;59.87;100277.38;5054389;28;45341;-47
2022/04/06 05:52:33;;;;;;;;;3.75;2.25;;;;;10.48;60.11;100267.47;5053968;28;45414;-48
2022/04/06 05:54:59;;;;;;;;;4.25;3.00;;;;;10.48;60.68;100276.56;5054602;28;45393;-47
2022/04/06 05:57:24;;;;;;;;;6.50;3.75;;;;;10.26;60.25;100235.72;5054605;28;46342;-46
2022/04/06 05:59:50;;;;;;;;;5.25;3.75;;;;;10.15;60.12;100228.25;5036153;28;45409;-45
2022/04/06 06:02:16;;;;;;;;;4.50;2.75;;;;;10.46;60.71;100275.09;5055027;28;45188;-48
2022/04/06 06:04:41;;;;;;;;;3.00;3.00;;;;;10.47;60.37;100269.41;5037123;28;45596;-48
2022/04/06 06:07:07;;;;;;;;;8.00;2.00;;;;;10.25;60.39;100230.50;5056963;28;46344;-48
2022/04/06 06:09:33;;;;;;;;;2.50;1.50;;;;;10.45;60.20;100274.25;5073565;28;45482;-47
2022/04/06 06:11:59;;;;;;;;;2.20;2.20;;;;;10.44;60.47;100273.41;5058235;28;45310;-47
2022/04/06 06:14:26;;;;;;;;;1.60;1.60;;;;;10.24;61.18;100237.88;5040414;28;45447;-52
2022/04/06 06:16:51;;;;;;;;;1.80;1.80;;;;;10.35;60.42;100262.91;5058108;28;45501;-47
2022/04/06 06:19:17;;;;;;;;;3.75;2.00;;;;;10.10;61.10;100237.13;5039959;28;45430;-48
2022/04/06 06:21:43;;;;;;;;;2.00;2.00;;;;;10.35;61.77;100258.25;5040419;28;45349;-48
2022/04/06 06:24:08;;;;;;;;;3.75;3.75;;;;;10.20;61.03;100233.06;5057783;28;45556;-51
2022/04/06 06:26:34;;;;;;;;;3.50;1.50;;;;;10.31;60.48;100240.56;5057791;28;45322;-48
2022/04/06 06:29:00;;;;;;;;;3.40;3.40;;;;;10.42;61.04;100256.31;5057896;28;45348;-53
2022/04/06 06:31:28;;;;;;;;;2.25;2.00;;;;;10.48;61.03;100259.25;5057909;28;45373;-46
2022/04/06 06:33:54;;;;;;;;;2.00;1.00;;;;;10.48;60.47;100262.84;5058333;28;45525;-46
2022/04/06 06:36:20;;;;;;;;;3.40;2.00;;;;;10.42;60.08;100263.69;5073258;28;46296;-46
2022/04/06 06:38:46;;;;;;;;;4.00;2.25;;;;;10.44;60.73;100256.09;5057661;28;45725;-45
2022/04/06 06:41:11;;;;;;;;;2.00;1.00;;;;;10.43;60.90;100252.53;5057981;28;45350;-46
2022/04/06 06:43:37;;;;;;;;;3.25;2.50;;;;;10.52;60.89;100260.50;5073676;28;45581;-48
2022/04/06 06:46:02;;;;;;;;;2.25;2.25;;;;;10.47;60.38;100255.69;5073293;28;46682;-46
2022/04/06 06:48:27;;;;;;;;;6.25;2.75;;;;;10.51;61.08;100253.31;5057771;28;45303;-45
2022/04/06 06:50:53;;;;;;;;;2.00;1.00;;;;;10.59;60.95;100255.78;5057554;28;45438;-47
2022/04/06 06:53:18;;;;;;;;;3.25;3.25;;;;;10.64;59.91;100252.34;5058017;28;45607;-47
2022/04/06 06:55:44;;;;;;;;;2.00;2.00;;;;;10.66;60.75;100253.81;5039191;28;46375;-49
2022/04/06 06:58:09;;;;;;;;;1.00;1.00;;;;;10.68;60.21;100257.16;5057456;28;45383;-47
2022/04/06 07:00:35;;;;;;;;;2.50;1.00;;;;;10.66;59.98;100248.34;5039742;28;45276;-46
2022/04/06 07:03:00;;;;;;;;;2.00;2.00;;;;;10.52;60.70;100224.81;5058115;28;45667;-46
2022/04/06 07:05:28;;;;;;;;;2.00;1.00;;;;;10.69;60.64;100244.31;5039393;28;45591;-49
2022/04/06 07:07:54;;;;;;;;;2.40;1.20;;;;;10.62;59.49;100257.25;5057618;28;45367;-48
2022/04/06 07:10:21;;;;;;;;;2.00;2.00;;;;;10.44;60.35;100224.03;5039955;28;45395;-46
2022/04/06 07:12:46;;;;;;;;;1.00;1.00;;;;;10.69;59.50;100242.38;5057440;28;45468;-45
2022/04/06 07:15:12;;;;;;;;;3.75;3.75;;;;;10.67;60.31;100241.78;5039668;28;45643;-45
2022/04/06 07:17:38;;;;;;;;;1.75;1.00;;;;;10.74;60.52;100235.38;5055070;28;45342;-46
2022/04/06 07:20:04;;;;;;;;;0.20;0.00;;;;;10.82;59.11;100235.94;5039576;28;45323;-45
2022/04/06 07:22:30;;;;;;;;;1.80;1.00;;;;;10.61;58.85;100198.75;5057892;28;45569;-45
2022/04/06 07:24:55;;;;;;;;;1.25;1.00;;;;;10.84;59.87;100235.72;5057221;28;46119;-47
2022/04/06 07:27:21;;;;;;;;;1.00;1.00;;;;;10.82;59.26;100216.72;5057220;28;45348;-49
2022/04/06 07:29:47;;;;;;;;;4.50;2.00;;;;;10.86;58.84;100228.09;5055915;28;45267;-47
2022/04/06 07:32:12;;;;;;;;;8.25;5.25;;;;;10.90;59.33;100236.72;5057633;28;45378;-49
2022/04/06 07:34:38;;;;;;;;;1.75;1.75;;;;;10.93;59.20;100234.34;5055867;28;45485;-47
2022/04/06 07:37:03;;;;;;;;;1.25;1.25;;;;;10.98;59.27;100226.28;5057114;28;45336;-45
2022/04/06 07:39:29;;;;;;;;;0.75;0.75;;;;;10.85;59.52;100209.94;5057106;28;45306;-47
2022/04/06 07:41:58;;;;;;;;;2.75;1.25;;;;;11.01;59.54;100235.97;5057298;28;45307;-47
2022/04/06 07:44:23;;;;;;;;;3.00;3.00;;;;;11.01;58.59;100235.97;5056820;28;47577;-45
2022/04/06 07:46:50;;;;;;;;;2.00;2.00;;;;;11.00;59.27;100228.81;5038465;28;45327;-46
2022/04/06 07:49:16;;;;;;;;;1.40;1.00;;;;;11.06;59.13;100232.53;5056940;28;45300;-47
2022/04/06 07:51:42;;;;;;;;;4.20;1.80;;;;;11.08;58.77;100234.00;5056989;28;45383;-48
2022/04/06 07:54:07;;;;;;;;;2.50;2.00;;;;;11.12;58.48;100223.38;5056728;28;45342;-46
2022/04/06 07:56:33;;;;;;;;;3.00;3.00;;;;;11.12;58.83;100221.47;5056678;28;45352;-47
2022/04/06 07:58:58;;;;;;;;;1.00;1.00;;;;;11.18;59.31;100221.63;5054992;28;45552;-45
2022/04/06 08:01:24;;;;;;;;;0.50;0.50;;;;;11.21;58.74;100215.69;5057134;28;45962;-45
2022/04/06 08:03:49;;;;;;;;;2.50;1.00;;;;;11.16;59.09;100215.53;5038369;28;45547;-47
2022/04/06 08:06:15;;;;;;;;;1.00;1.00;;;;;11.17;58.01;100219.94;5056296;28;45393;-47
2022/04/06 08:08:41;;;;;;;;;0.00;0.00;;;;;11.13;58.69;100216.81;5056765;28;45394;-47
2022/04/06 08:11:07;;;;;;;;;2.00;2.00;;;;;11.19;58.65;100201.31;5056623;28;45382;-46
2022/04/06 08:13:33;;;;;;;;;3.00;3.00;;;;;11.26;58.87;100202.06;5056641;28;45915;-47
2022/04/06 08:15:59;;;;;;;;;2.00;2.00;;;;;11.19;58.48;100209.56;5056355;28;45407;-49
2022/04/06 08:18:25;;;;;;;;;2.60;2.00;;;;;11.00;58.30;100162.03;5056568;28;45362;-46
2022/04/06 08:20:50;;;;;;;;;2.00;2.00;;;;;11.21;58.15;100191.78;5056752;28;45457;-44
2022/04/06 08:23:20;;;;;;;;;2.50;2.00;;;;;10.95;58.88;100158.06;5056313;28;46620;-46
2022/04/06 08:25:46;;;;;;;;;2.00;2.00;;;;;11.07;58.57;100162.81;5071119;28;45405;-46
2022/04/06 08:28:12;;;;;;;;;2.00;2.00;;;;;11.25;58.67;100195.75;5056050;28;45437;-45
2022/04/06 08:30:42;;;;;;;;;2.75;2.75;;;;;11.28;58.49;100193.63;5055837;28;45283;-47
2022/04/06 08:33:08;;;;;;;;;2.00;2.00;;;;;11.06;58.41;100147.41;5070807;28;45553;-47
2022/04/06 08:35:33;;;;;;;;;1.00;1.00;;;;;11.16;58.03;100169.66;5056232;28;45408;-45
2022/04/06 08:37:59;;;;;;;;;2.00;1.00;;;;;11.41;57.80;100187.13;5056032;28;45291;-46
2022/04/06 08:40:25;;;;;;;;;2.00;2.00;;;;;11.44;58.16;100195.75;5056325;28;45422;-46
2022/04/06 08:42:51;;;;;;;;;3.00;1.40;;;;;11.46;58.07;100176.25;5025275;28;46110;-46
2022/04/06 08:45:17;;;;;;;;;1.00;1.00;;;;;11.49;58.32;100184.06;5037496;28;45477;-47
2022/04/06 08:47:42;;;;;;;;;3.00;1.00;;;;;11.20;58.03;100126.13;4991088;27;45680;-49
2022/04/06 08:50:08;;;;;;;;;1.50;1.50;;;;;11.62;57.91;100185.78;5033837;28;45392;-47
2022/04/06 08:52:34;;;;;;;;;4.00;1.00;;;;;11.59;57.81;100181.56;5075836;28;46764;-48
2022/04/06 08:55:00;;;;;;;;;2.00;2.00;;;;;11.63;57.60;100182.78;5074796;28;45199;-48
2022/04/06 08:57:29;;;;;;;;;1.00;1.00;;;;;11.71;57.46;100189.03;5031372;28;45751;-49
2022/04/06 08:59:55;;;;;;;;;1.40;1.40;;;;;11.70;57.14;100179.97;5051373;28;45436;-47
2022/04/06 09:02:21;;;;;;;;;1.75;1.75;;;;;11.58;56.93;100173.59;5051152;28;45504;-49
2022/04/06 09:04:51;;;;;;;;;1.00;1.00;;;;;11.62;57.38;100172.03;5051141;28;45432;-47
2022/04/06 09:07:17;;;;;;;;;1.40;0.60;;;;;11.41;57.28;100135.75;5032147;28;45501;-51
2022/04/06 09:09:42;;;;;;;;;2.00;2.00;;;;;11.62;58.01;100172.88;5049914;28;45428;-50
2022/04/06 09:12:08;;;;;;;;;1.25;1.25;;;;;11.72;57.50;100168.72;5032489;28;45885;-51
2022/04/06 09:14:34;;;;;;;;;3.60;3.00;;;;;11.79;57.06;100172.22;5049516;28;45923;-46
2022/04/06 09:17:02;;;;;;;;;3.00;3.00;;;;;11.82;57.15;100170.91;5051185;28;45488;-47
2022/04/06 09:19:28;;;;;;;;;3.20;2.80;;;;;11.62;57.53;100130.81;5049885;28;45424;-48
2022/04/06 09:21:54;;;;;;;;;4.75;3.00;;;;;11.88;57.39;100165.31;5050790;28;46538;-49
2022/04/06 09:24:20;;;;;;;;;2.00;2.00;;;;;11.92;57.31;100168.44;5050997;28;45487;-47
2022/04/06 09:26:59;;;;;;;;;3.80;3.80;;;;;11.96;57.47;100166.06;5050762;28;45959;-47
2022/04/06 09:29:25;;;;;;;;;3.00;3.00;;;;;12.00;57.27;100165.34;5064535;28;45533;-52
2022/04/06 09:31:51;;;;;;;;;4.50;3.25;;;;;12.05;56.98;100171.00;5064866;28;45712;-48
2022/04/06 09:34:19;;;;;;;;;4.00;2.40;;;;;12.04;56.94;100160.22;5032503;28;45469;-47
2022/04/06 09:36:45;;;;;;;;;2.80;2.80;;;;;12.09;57.13;100168.63;5064674;28;45378;-49
2022/04/06 09:39:10;;;;;;;;;2.25;1.00;;;;;12.10;56.82;100161.22;5050827;28;45627;-49
2022/04/06 09:41:59;;;;;;;;;6.50;4.25;;;;;12.11;57.08;100166.47;5050433;28;46018;-47
2022/04/06 09:48:00;;;;;;;;;4.00;3.00;;;;;12.15;57.10;100164.06;5049963;28;45531;-51
2022/04/06 09:50:15;;;;;;;;;2.00;2.00;;;;;12.07;56.91;100163.34;5036399;28;45808;-48
2022/04/06 09:52:42;;;;;;;;;2.80;2.80;;;;;12.10;57.29;100161.22;5069137;28;46691;-49
2022/04/06 09:55:09;;;;;;;;;1.40;1.40;;;;;12.07;57.03;100166.09;5051159;28;45557;-54
2022/04/06 09:57:56;;;;;;;;;3.80;2.80;;;;;12.05;57.01;100154.50;5043902;27;45573;-48
2022/04/06 10:00:23;;;;;;;;;3.40;2.20;;;;;12.03;56.70;100158.53;5051877;28;45386;-53
2022/04/06 10:03:00;;;;;;;;;3.20;3.20;;;;;12.03;56.59;100164.03;5053290;28;46597;-50
2022/04/06 10:05:25;;;;;;;;;1.80;1.80;;;;;12.04;56.67;100166.59;5033491;28;45516;-47
2022/04/06 10:07:52;;;;;;;;;3.75;2.00;;;;;11.98;56.72;100159.25;5017134;28;45588;-49
2022/04/06 10:10:18;;;;;;;;;2.00;2.00;;;;;11.95;55.98;100172.63;5053852;28;45765;-49
2022/04/06 10:12:43;;;;;;;;;3.00;3.00;;;;;11.66;57.20;100143.00;5052549;28;45836;-52
2022/04/06 10:15:09;;;;;;;;;1.00;1.00;;;;;11.86;56.94;100156.47;5035277;28;45582;-50
2022/04/06 10:17:36;;;;;;;;;3.00;3.00;;;;;12.02;56.55;100146.69;5033248;28;45427;-45
2022/04/06 10:20:17;;;;;;;;;3.20;3.20;;;;;12.15;56.51;100134.66;5052269;28;45546;-45
2022/04/06 10:23:09;;;;;;;;;3.80;3.00;;;;;12.28;56.40;100132.78;5050546;28;46527;-49
2022/04/06 10:25:56;;;;;;;;;4.00;3.20;;;;;12.49;56.00;100134.06;5041127;28;46023;-50
2022/04/06 10:28:22;;;;;;;;;3.00;3.00;;;;;12.55;54.91;100133.09;5053632;28;45462;-49
2022/04/06 10:31:12;;;;;;;;;2.50;2.50;;;;;12.53;55.08;100146.28;5050462;27;45559;-48
2022/04/06 10:33:38;;;;;;;;;3.00;3.00;;;;;12.60;54.51;100126.91;5032738;28;46850;-47
2022/04/06 10:36:23;;;;;;;;;2.20;2.20;;;;;12.52;54.88;100106.06;5032744;28;45517;-48
2022/04/06 10:39:07;;;;;;;;;3.60;3.40;;;;;12.76;54.64;100128.09;5031806;28;45818;-44
2022/04/06 10:41:33;;;;;;;;;2.20;2.20;;;;;12.73;54.93;100131.31;5033404;28;45402;-48
2022/04/06 10:43:58;;;;;;;;;3.60;2.80;;;;;12.64;54.83;100119.81;5049219;28;46511;-48
2022/04/06 10:46:39;;;;;;;;;4.25;3.25;;;;;12.61;55.15;100126.66;5023987;28;45501;-51
2022/04/06 10:49:13;;;;;;;;;2.60;2.60;;;;;12.49;55.07;100120.31;5034580;28;45844;-47
2022/04/06 10:51:41;;;;;;;;;7.60;4.00;;;;;12.42;55.41;100106.69;5053480;28;45466;-49
2022/04/06 10:54:12;;;;;;;;;8.40;4.20;;;;;12.48;55.50;100110.38;5052563;28;45451;-46
2022/04/06 10:56:52;;;;;;;;;4.60;4.60;;;;;12.54;55.51;100103.91;5040471;28;45415;-51
2022/04/06 10:59:24;;;;;;;;;6.60;4.00;;;;;12.56;55.25;100093.53;5053174;28;45492;-54
2022/04/06 11:02:25;;;;;;;;;4.80;4.80;;;;;12.59;55.39;100084.75;5053622;28;45803;-47
2022/04/06 11:04:52;;;;;;;;;6.20;5.00;;;;;12.64;55.75;100081.28;5030790;28;46051;-49
2022/04/06 11:10:27;;;;;;;;;5.80;3.80;;;;;12.79;55.87;100074.41;5047282;28;46199;-47
2022/04/06 11:13:06;;;;;;;;;4.25;4.25;;;;;12.85;55.61;100079.81;5033105;28;45587;-47
2022/04/06 11:15:37;;;;;;;;;5.20;4.40;;;;;12.87;55.41;100068.56;5034458;28;47287;-50
2022/04/06 11:18:04;;;;;;;;;4.60;4.60;;;;;12.90;55.86;100056.22;5014501;28;45445;-45
2022/04/06 11:20:31;;;;;;;;;5.00;5.00;;;;;12.97;55.52;100065.16;5030852;28;46049;-50
2022/04/06 11:22:58;;;;;;;;;4.00;4.00;;;;;12.95;55.93;100059.06;5052669;28;45552;-51
2022/04/06 11:25:28;;;;;;;;;3.40;3.40;;;;;12.77;55.74;100024.28;5052306;28;45571;-49
2022/04/06 11:27:56;;;;;;;;;2.80;2.80;;;;;12.89;55.91;100038.84;5017785;28;45474;-53
2022/04/06 11:30:23;;;;;;;;;6.00;3.20;;;;;12.70;55.99;99994.16;5034440;28;45591;-49
2022/04/06 11:32:51;;;;;;;;;4.00;4.00;;;;;13.01;55.89;100044.31;5066816;28;45516;-49
2022/04/06 11:35:17;;;;;;;;;6.80;5.60;;;;;12.98;55.99;100042.06;5052222;28;45451;-52